Time;durP1;ratioP1;P1;durP2;ratioP2;P2;SDS_P1;SDS_P2;PMS_P1;PMS_P2;Temp;Humidity;BMP_temperature;BMP_pressure;BME280_temperature;BME280_humidity;BME280_pressure;Samples;Min_cycle;Max_cycle;Signal;HPM_P1;HPM_P2
2023/03/01 00:01:09;;;;;;;2.80;2.70;;;;;;;5.80;100.00;101018.53;5029883;28;20671;-75
2023/03/01 00:03:36;;;;;;;1.37;1.37;;;;;;;5.69;100.00;101019.69;5030963;28;20203;-74
2023/03/01 00:06:05;;;;;;;1.93;1.93;;;;;;;5.83;100.00;101015.22;5015964;28;20220;-75
2023/03/01 00:08:33;;;;;;;1.90;1.80;;;;;;;5.53;100.00;100995.72;5011589;28;20316;-74
2023/03/01 00:11:05;;;;;;;3.23;1.47;;;;;;;5.70;100.00;101015.44;5015116;28;20665;-74
2023/03/01 00:13:32;;;;;;;1.00;1.00;;;;;;;5.25;100.00;100947.16;5018113;28;20207;-74
2023/03/01 00:15:59;;;;;;;1.10;1.10;;;;;;;5.54;100.00;100982.91;5024809;28;20659;-74
2023/03/01 00:18:25;;;;;;;1.10;1.10;;;;;;;5.59;100.00;100996.00;5020512;28;20196;-74
2023/03/01 00:20:53;;;;;;;1.30;1.30;;;;;;;5.75;100.00;101003.66;5031128;28;20192;-74
2023/03/01 00:23:22;;;;;;;1.03;1.03;;;;;;;5.68;100.00;100997.34;5011860;28;20205;-74
2023/03/01 00:25:49;;;;;;;0.97;0.97;;;;;;;5.48;100.00;100973.22;4993036;28;20232;-73
2023/03/01 00:28:16;;;;;;;0.73;0.73;;;;;;;5.48;100.00;100954.34;5011390;28;20212;-74
2023/03/01 00:30:43;;;;;;;0.90;0.90;;;;;;;5.54;100.00;100982.91;5011241;28;20676;-74
2023/03/01 00:33:10;;;;;;;1.10;1.10;;;;;;;5.72;100.00;100994.09;5021839;28;20196;-74
2023/03/01 00:35:37;;;;;;;1.10;1.10;;;;;;;5.69;100.00;100987.94;5016229;28;20209;-74
2023/03/01 00:38:04;;;;;;;1.47;1.37;;;;;;;5.58;100.00;100973.66;5028319;28;20231;-74
2023/03/01 00:40:34;;;;;;;0.80;0.80;;;;;;;5.56;100.00;100970.16;5016466;28;20209;-74
2023/03/01 00:43:02;;;;;;;5.30;1.50;;;;;;;5.69;100.00;100980.22;5031212;28;20204;-75
2023/03/01 00:45:29;;;;;;;1.23;1.23;;;;;;;5.67;100.00;100979.28;5017473;28;20687;-72
2023/03/01 00:47:55;;;;;;;0.80;0.80;;;;;;;5.61;100.00;100973.81;5022730;28;20223;-73
2023/03/01 00:50:22;;;;;;;0.80;0.80;;;;;;;5.58;100.00;100973.66;5027210;28;20211;-73
2023/03/01 00:52:53;;;;;;;0.80;0.80;;;;;;;5.64;100.00;100950.78;5028134;28;20211;-73
2023/03/01 00:55:20;;;;;;;1.00;1.00;;;;;;;5.67;100.00;100966.41;5030604;28;20254;-75
2023/03/01 00:57:48;;;;;;;1.17;1.17;;;;;;;5.77;100.00;100960.91;5034518;28;20204;-74
2023/03/01 01:00:15;;;;;;;1.10;1.10;;;;;;;5.73;100.00;100958.97;5034730;28;20200;-74
2023/03/01 01:02:42;;;;;;;2.90;2.30;;;;;;;5.59;100.00;100957.44;5015806;28;20211;-73
2023/03/01 01:05:10;;;;;;;0.80;0.80;;;;;;;5.49;100.00;100954.38;5015339;28;20232;-74
2023/03/01 01:07:37;;;;;;;0.90;0.90;;;;;;;5.48;100.00;100944.94;5029689;28;20214;-75
2023/03/01 01:10:05;;;;;;;0.90;0.90;;;;;;;5.54;100.00;100951.16;5033103;28;20675;-75
2023/03/01 01:12:31;;;;;;;1.57;1.53;;;;;;;5.48;100.00;100937.22;5025443;28;20196;-75
2023/03/01 01:15:00;;;;;;;1.00;1.00;;;;;;;5.57;100.00;100947.06;4998259;28;20227;-74
2023/03/01 01:17:26;;;;;;;0.70;0.70;;;;;;;5.61;100.00;100938.69;5034731;28;20196;-75
2023/03/01 01:19:53;;;;;;;1.27;1.27;;;;;;;5.51;100.00;100941.63;5023043;28;20207;-74
2023/03/01 01:22:20;;;;;;;3.30;1.93;;;;;;;5.42;100.00;100926.59;5019543;28;20196;-76
2023/03/01 01:24:47;;;;;;;1.77;1.77;;;;;;;5.57;100.00;100935.88;5026587;28;20240;-74
2023/03/01 01:27:13;;;;;;;1.20;1.20;;;;;;;5.54;100.00;100933.16;5015057;28;20204;-73
2023/03/01 01:29:41;;;;;;;0.90;0.90;;;;;;;5.52;100.00;100930.53;5025820;28;20204;-75
2023/03/01 01:32:09;;;;;;;1.43;1.43;;;;;;;5.59;100.00;100926.56;5034140;28;20200;-74
2023/03/01 01:34:36;;;;;;;1.00;1.00;;;;;;;5.44;100.00;100913.84;5023780;28;20201;-74
2023/03/01 01:37:03;;;;;;;0.80;0.80;;;;;;;5.43;100.00;100924.91;5018090;28;20253;-73
2023/03/01 01:39:30;;;;;;;1.17;1.17;;;;;;;4.85;100.00;100826.09;5033414;28;20223;-74
2023/03/01 01:41:57;;;;;;;0.70;0.70;;;;;;;5.42;100.00;100918.03;5031853;28;20663;-73
2023/03/01 01:44:27;;;;;;;0.80;0.80;;;;;;;5.42;100.00;100926.59;5029621;28;20197;-74
2023/03/01 01:46:57;;;;;;;0.90;0.90;;;;;;;5.43;100.00;100912.06;4995788;28;20196;-73
2023/03/01 01:49:30;;;;;;;0.90;0.90;;;;;;;5.44;100.00;100914.72;5032518;28;20192;-75
2023/03/01 01:52:05;;;;;;;3.27;3.10;;;;;;;5.40;100.00;100915.38;5034218;28;20636;-74
2023/03/01 01:54:40;;;;;;;0.90;0.90;;;;;;;5.36;100.00;100907.44;5033843;28;20227;-74
2023/03/01 01:57:11;;;;;;;0.80;0.80;;;;;;;5.40;100.00;100911.91;5020119;28;20196;-75
2023/03/01 01:59:40;;;;;;;0.90;0.90;;;;;;;5.32;100.00;100900.38;5033059;28;20204;-74
2023/03/01 02:02:07;;;;;;;1.10;1.10;;;;;;;5.18;100.00;100884.28;5030503;28;20200;-74
2023/03/01 02:04:35;;;;;;;0.93;0.93;;;;;;;5.28;100.00;100911.34;5017715;28;20201;-73
2023/03/01 02:07:07;;;;;;;1.00;1.00;;;;;;;5.32;100.00;100914.13;5014036;28;20656;-74
2023/03/01 02:09:35;;;;;;;1.20;1.20;;;;;;;5.28;100.00;100889.06;5018072;28;20205;-74
2023/03/01 02:12:03;;;;;;;0.67;0.67;;;;;;;5.37;100.00;100922.06;5017401;28;20220;-74
2023/03/01 02:14:29;;;;;;;0.80;0.80;;;;;;;5.42;100.00;100912.91;5015324;28;20224;-73
2023/03/01 02:16:56;;;;;;;1.80;1.70;;;;;;;5.19;100.00;100890.31;5023831;28;20204;-74
2023/03/01 02:19:39;;;;;;;0.90;0.90;;;;;;;5.34;100.00;100921.91;5028022;28;20239;-73
2023/03/01 02:22:19;;;;;;;0.90;0.90;;;;;;;5.16;100.00;100911.59;4985427;28;20204;-73
2023/03/01 02:24:57;;;;;;;0.80;0.80;;;;;;;5.34;100.00;100933.09;5031963;28;20253;-74
2023/03/01 02:27:32;;;;;;;2.23;2.10;;;;;;;5.49;100.00;100923.53;5018454;28;20195;-72
2023/03/01 02:30:00;;;;;;;1.33;1.33;;;;;;;5.38;100.00;100914.44;5013573;28;20208;-74
2023/03/01 02:32:26;;;;;;;1.37;1.37;;;;;;;5.41;100.00;100935.16;4979319;28;20197;-73
2023/03/01 02:34:54;;;;;;;0.80;0.80;;;;;;;5.45;100.00;100921.66;5013032;28;20219;-74
2023/03/01 02:37:24;;;;;;;0.90;0.90;;;;;;;5.54;100.00;100930.59;4994682;28;20239;-74
2023/03/01 02:39:57;;;;;;;0.80;0.80;;;;;;;5.62;100.00;100929.28;5013371;28;20201;-74
2023/03/01 02:42:32;;;;;;;1.00;1.00;;;;;;;5.63;100.00;100934.50;5026511;28;20204;-73
2023/03/01 02:45:00;;;;;;;0.80;0.80;;;;;;;5.57;100.00;100941.03;5026317;28;20227;-74
2023/03/01 02:47:27;;;;;;;1.20;1.20;;;;;;;5.47;100.00;100942.28;5032810;28;20690;-74
2023/03/01 02:49:54;;;;;;;1.00;1.00;;;;;;;5.39;100.00;100944.47;5032640;28;20212;-74
2023/03/01 02:52:34;;;;;;;0.73;0.73;;;;;;;5.56;100.00;100932.44;5008375;28;20193;-74
2023/03/01 02:55:04;;;;;;;0.87;0.87;;;;;;;5.48;100.00;100937.22;4994765;28;20197;-74
2023/03/01 02:57:33;;;;;;;0.70;0.70;;;;;;;5.45;100.00;100934.50;5013186;28;20205;-74
2023/03/01 03:00:07;;;;;;;1.33;1.30;;;;;;;5.45;100.00;100937.06;5012993;28;20205;-74
2023/03/01 03:02:38;;;;;;;0.80;0.80;;;;;;;5.25;100.00;100917.19;5024967;28;20211;-75
2023/03/01 03:05:08;;;;;;;1.10;1.10;;;;;;;5.47;100.00;100934.56;5013821;28;20229;-75
2023/03/01 03:07:35;;;;;;;0.90;0.90;;;;;;;5.20;100.00;100872.41;5012788;28;20255;-75
2023/03/01 03:10:02;;;;;;;0.60;0.60;;;;;;;5.42;100.00;100916.31;5013033;28;20205;-75
2023/03/01 03:12:29;;;;;;;0.90;0.90;;;;;;;5.62;100.00;100931.84;5026282;28;20296;-75
2023/03/01 03:14:56;;;;;;;2.23;2.03;;;;;;;5.60;100.00;100930.91;5031326;28;20204;-74
2023/03/01 03:17:24;;;;;;;1.87;1.80;;;;;;;5.68;100.00;100927.88;5032499;28;20215;-75
2023/03/01 03:19:51;;;;;;;0.90;0.90;;;;;;;5.60;100.00;100931.75;5019013;28;20578;-75
2023/03/01 03:22:18;;;;;;;2.03;1.83;;;;;;;5.55;100.00;100932.34;5012690;28;20211;-75
2023/03/01 03:24:44;;;;;;;1.27;1.27;;;;;;;5.53;100.00;100924.56;5026379;28;20205;-75
2023/03/01 03:27:11;;;;;;;0.90;0.90;;;;;;;5.60;100.00;100933.47;5011355;28;20193;-75
2023/03/01 03:29:38;;;;;;;0.70;0.70;;;;;;;5.53;100.00;100934.00;5013399;28;20660;-75
2023/03/01 03:32:05;;;;;;;2.00;1.63;;;;;;;5.46;100.00;100931.09;5019390;28;20614;-75
2023/03/01 03:34:33;;;;;;;1.00;1.00;;;;;;;5.44;100.00;100914.72;5016778;28;20197;-75
2023/03/01 03:37:00;;;;;;;1.00;1.00;;;;;;;5.48;100.00;100934.66;5017150;28;20232;-75
2023/03/01 03:39:27;;;;;;;1.00;1.00;;;;;;;5.26;100.00;100903.53;5011957;28;20309;-75
2023/03/01 03:41:54;;;;;;;0.90;0.90;;;;;;;5.45;100.00;100907.91;5012221;28;20192;-75
2023/03/01 03:44:22;;;;;;;0.73;0.73;;;;;;;5.64;100.00;100927.66;5009273;28;20215;-75
2023/03/01 03:46:49;;;;;;;0.80;0.80;;;;;;;5.66;100.00;100931.19;4977324;28;20236;-75
2023/03/01 03:49:16;;;;;;;1.23;1.23;;;;;;;5.54;100.00;100935.72;5011896;28;20208;-77
2023/03/01 03:51:46;;;;;;;0.80;0.80;;;;;;;5.53;100.00;100910.84;4992196;28;20969;-77
2023/03/01 03:54:13;;;;;;;0.97;0.97;;;;;;;5.45;100.00;100910.47;5025359;28;20219;-76
2023/03/01 03:56:40;;;;;;;0.60;0.60;;;;;;;5.67;100.00;100896.94;5010254;28;20441;-75
2023/03/01 03:59:06;;;;;;;1.33;1.33;;;;;;;6.09;100.00;100905.81;5014036;28;20222;-75
2023/03/01 04:01:33;;;;;;;0.70;0.70;;;;;;;5.66;100.00;100916.63;5027627;28;20208;-76
2023/03/01 04:04:03;;;;;;;0.90;0.90;;;;;;;5.58;100.00;100915.38;5019393;28;20205;-76
2023/03/01 04:06:31;;;;;;;0.83;0.83;;;;;;;5.45;100.00;100921.66;5030772;28;20220;-76
2023/03/01 04:09:02;;;;;;;0.73;0.73;;;;;;;5.66;100.00;100908.03;5025014;28;20880;-73
2023/03/01 04:11:29;;;;;;;0.80;0.80;;;;;;;5.49;100.00;100902.94;5012801;28;20228;-75
2023/03/01 04:13:59;;;;;;;1.37;1.37;;;;;;;5.39;100.00;100911.03;5012555;28;20205;-75
2023/03/01 04:16:26;;;;;;;1.63;1.53;;;;;;;4.80;100.00;100824.97;5016431;28;20200;-75
2023/03/01 04:18:53;;;;;;;0.80;0.80;;;;;;;5.36;100.00;100921.19;5019549;28;20675;-76
2023/03/01 04:21:20;;;;;;;0.80;0.80;;;;;;;5.22;100.00;100900.72;4946781;28;20207;-77
2023/03/01 04:23:47;;;;;;;2.80;2.60;;;;;;;5.10;100.00;100898.44;5021212;28;20668;-76
2023/03/01 04:26:15;;;;;;;0.70;0.70;;;;;;;5.25;100.00;100917.19;5011182;28;20217;-76
2023/03/01 04:28:44;;;;;;;0.90;0.90;;;;;;;5.11;100.00;100892.50;5011164;28;20208;-76
2023/03/01 04:31:16;;;;;;;2.08;1.88;;;;;;;5.13;100.00;100879.72;5010353;28;20972;-76
2023/03/01 04:33:43;;;;;;;0.60;0.60;;;;;;;5.10;100.00;100895.00;5019925;28;20238;-76
2023/03/01 04:36:11;;;;;;;2.00;1.90;;;;;;;5.31;100.00;100920.09;5030665;28;20204;-76
2023/03/01 04:38:39;;;;;;;1.53;1.53;;;;;;;5.26;100.00;100924.09;5012153;28;20193;-76
2023/03/01 04:41:07;;;;;;;3.63;3.43;;;;;;;5.32;100.00;100929.53;5011981;28;20629;-76
2023/03/01 04:43:36;;;;;;;2.17;2.07;;;;;;;5.29;100.00;100924.25;5010293;28;20204;-76
2023/03/01 04:46:03;;;;;;;31.50;3.07;;;;;;;5.25;100.00;100921.44;5011503;28;20224;-75
2023/03/01 04:48:31;;;;;;;0.97;0.97;;;;;;;5.40;100.00;100930.81;5011906;28;20199;-75
2023/03/01 04:50:59;;;;;;;0.80;0.80;;;;;;;5.32;100.00;100933.78;4978427;28;20282;-75
2023/03/01 04:53:26;;;;;;;1.57;1.57;;;;;;;5.03;100.00;100893.78;5030834;28;20234;-76
2023/03/01 04:55:52;;;;;;;1.40;1.40;;;;;;;5.41;100.00;100929.13;5024266;28;20248;-75
2023/03/01 04:58:19;;;;;;;1.90;1.63;;;;;;;5.03;100.00;100856.97;5015513;28;20207;-76
2023/03/01 05:00:47;;;;;;;0.60;0.60;;;;;;;5.83;100.00;100928.59;5030318;28;20211;-76
2023/03/01 05:03:17;;;;;;;2.13;2.03;;;;;;;5.74;100.00;100917.00;5026900;28;20200;-75
2023/03/01 05:05:46;;;;;;;0.70;0.70;;;;;;;5.63;100.00;100900.19;5030420;28;20216;-75
2023/03/01 05:08:17;;;;;;;3.73;2.53;;;;;;;5.78;100.00;100908.63;5020533;28;20196;-76
2023/03/01 05:10:46;;;;;;;0.88;0.88;;;;;;;5.22;100.00;100868.19;5030277;28;20457;-74
2023/03/01 05:13:14;;;;;;;1.87;1.73;;;;;;;5.59;100.00;100931.72;5030467;28;20258;-75
2023/03/01 05:15:41;;;;;;;0.90;0.90;;;;;;;5.33;100.00;100890.19;5016085;28;20201;-78
2023/03/01 05:18:11;;;;;;;0.60;0.60;;;;;;;5.48;100.00;100937.22;5014624;28;20204;-75
2023/03/01 05:20:39;;;;;;;1.10;1.10;;;;;;;5.46;100.00;100936.25;5030506;28;20188;-76
2023/03/01 05:23:06;;;;;;;0.90;0.90;;;;;;;5.40;100.00;100927.34;5013065;28;20320;-76
2023/03/01 05:25:34;;;;;;;0.90;0.90;;;;;;;5.65;100.00;100942.28;5011026;28;20224;-77
2023/03/01 05:28:04;;;;;;;0.80;0.80;;;;;;;5.59;100.00;100913.69;5012529;28;20204;-77
2023/03/01 05:30:32;;;;;;;1.10;1.10;;;;;;;5.94;100.00;100931.72;5030835;28;20200;-77
2023/03/01 05:32:59;;;;;;;0.80;0.80;;;;;;;5.84;100.00;100934.66;5023252;28;20216;-78
2023/03/01 05:35:29;;;;;;;0.80;0.80;;;;;;;5.88;100.00;100939.16;5010433;28;20216;-76
2023/03/01 05:37:56;;;;;;;1.40;1.40;;;;;;;6.80;100.00;100924.47;5010725;28;20331;-79
2023/03/01 05:40:24;;;;;;;1.33;1.33;;;;;;;6.26;100.00;100933.22;5013435;28;20657;-75
2023/03/01 05:42:53;;;;;;;0.90;0.90;;;;;;;5.86;100.00;100931.34;5010789;28;20645;-75
2023/03/01 05:45:20;;;;;;;0.90;0.90;;;;;;;5.72;100.00;100941.75;5023136;28;20204;-76
2023/03/01 05:47:49;;;;;;;1.63;1.63;;;;;;;5.58;100.00;100942.78;5018229;28;20231;-76
2023/03/01 05:50:19;;;;;;;1.27;1.27;;;;;;;5.57;100.00;100944.47;5011649;28;20214;-77
2023/03/01 05:52:49;;;;;;;1.47;1.47;;;;;;;5.46;100.00;100933.66;5023707;28;20247;-75
2023/03/01 05:55:16;;;;;;;0.70;0.70;;;;;;;5.40;100.00;100947.91;5014027;28;20233;-77
2023/03/01 05:57:43;;;;;;;0.80;0.80;;;;;;;5.01;100.00;100890.28;5013964;28;20205;-78
2023/03/01 06:00:11;;;;;;;1.03;1.03;;;;;;;5.44;100.00;100943.00;5028443;28;20216;-77
2023/03/01 06:02:38;;;;;;;1.10;1.10;;;;;;;5.25;100.00;100945.47;5023366;28;20212;-77
2023/03/01 06:05:06;;;;;;;0.80;0.80;;;;;;;5.35;100.00;100939.97;5016753;28;20201;-77
2023/03/01 06:07:33;;;;;;;0.90;0.90;;;;;;;5.30;100.00;100913.16;5015231;28;20220;-77
2023/03/01 06:10:01;;;;;;;2.63;1.33;;;;;;;5.48;100.00;100932.06;5026231;28;20209;-78
2023/03/01 06:12:31;;;;;;;0.67;0.67;;;;;;;5.39;100.00;100913.59;5015366;28;20228;-82
2023/03/01 06:14:58;;;;;;;3.43;3.17;;;;;;;5.35;100.00;100903.13;5013892;28;20201;-78
2023/03/01 06:17:25;;;;;;;0.80;0.80;;;;;;;5.62;100.00;100925.03;5013570;28;20197;-79
2023/03/01 06:19:52;;;;;;;0.73;0.73;;;;;;;5.49;100.00;100931.25;5013686;28;20882;-76
2023/03/01 06:22:18;;;;;;;1.00;1.00;;;;;;;5.44;100.00;100931.84;5013404;28;20209;-75
2023/03/01 06:24:45;;;;;;;0.70;0.70;;;;;;;5.63;100.00;100931.06;5013861;28;20200;-76
2023/03/01 06:27:13;;;;;;;1.00;1.00;;;;;;;5.53;100.00;100914.25;5013844;28;20647;-76
2023/03/01 06:29:40;;;;;;;0.90;0.90;;;;;;;5.47;100.00;100940.59;5013505;28;20208;-77
2023/03/01 06:32:07;;;;;;;0.90;0.90;;;;;;;5.40;100.00;100925.66;5013602;28;20271;-77
2023/03/01 06:34:34;;;;;;;0.93;0.93;;;;;;;5.56;100.00;100931.56;5021760;28;20671;-77
2023/03/01 06:37:02;;;;;;;3.20;1.47;;;;;;;5.61;100.00;100943.81;5013082;28;20235;-77
2023/03/01 06:39:29;;;;;;;1.63;1.63;;;;;;;5.32;100.00;100924.41;5028911;28;20232;-77
2023/03/01 06:41:56;;;;;;;1.20;1.10;;;;;;;5.42;100.00;100947.19;5032578;28;20706;-78
2023/03/01 06:44:24;;;;;;;0.80;0.80;;;;;;;5.48;100.00;100952.66;5032900;28;20303;-77
2023/03/01 06:46:51;;;;;;;1.60;1.37;;;;;;;5.48;100.00;100921.78;5032683;28;20710;-78
2023/03/01 06:49:18;;;;;;;1.00;1.00;;;;;;;5.56;100.00;100949.56;5032755;28;20192;-77
2023/03/01 06:51:45;;;;;;;1.10;1.10;;;;;;;5.67;100.00;100950.97;5032804;28;20207;-77
2023/03/01 06:54:11;;;;;;;0.90;0.90;;;;;;;5.48;100.00;100955.22;5032646;28;20199;-77
2023/03/01 06:56:38;;;;;;;0.90;0.90;;;;;;;5.12;100.00;100858.28;5032759;28;20200;-78
2023/03/01 06:59:05;;;;;;;1.70;1.70;;;;;;;5.46;100.00;100935.34;5032738;28;20204;-78
2023/03/01 07:01:34;;;;;;;1.77;1.77;;;;;;;5.68;100.00;100960.44;5032619;28;20207;-77
2023/03/01 07:04:00;;;;;;;0.63;0.63;;;;;;;5.55;100.00;100947.78;5032404;28;20204;-77
2023/03/01 07:06:27;;;;;;;4.40;1.73;;;;;;;5.41;100.00;100948.00;5032298;28;20228;-77
2023/03/01 07:08:54;;;;;;;3.43;3.13;;;;;;;5.41;100.00;100935.16;5032445;28;20203;-77
2023/03/01 07:11:21;;;;;;;1.13;1.13;;;;;;;5.63;100.00;100967.06;5032229;28;20284;-76
2023/03/01 07:13:47;;;;;;;0.80;0.80;;;;;;;5.57;100.00;100966.75;5032514;28;20212;-77
2023/03/01 07:16:15;;;;;;;1.00;1.00;;;;;;;5.60;100.00;100966.91;5031984;28;20606;-78
2023/03/01 07:18:43;;;;;;;1.17;1.17;;;;;;;5.46;100.00;100964.53;5032275;28;20238;-76
2023/03/01 07:21:12;;;;;;;2.90;2.70;;;;;;;5.49;100.00;100954.38;5030391;28;20204;-77
2023/03/01 07:23:39;;;;;;;1.00;1.00;;;;;;;5.50;100.00;100948.44;5031970;28;20211;-79
2023/03/01 07:26:06;;;;;;;1.63;1.63;;;;;;;5.64;100.00;100953.38;5032274;28;20239;-78
2023/03/01 07:28:35;;;;;;;1.47;1.47;;;;;;;5.48;100.00;100942.38;5031884;28;20211;-78
2023/03/01 07:31:03;;;;;;;1.10;1.10;;;;;;;5.71;100.00;100955.44;5031827;28;20200;-77
2023/03/01 07:33:30;;;;;;;0.83;0.83;;;;;;;5.58;100.00;100958.22;5031893;28;20211;-78
2023/03/01 07:35:59;;;;;;;0.80;0.80;;;;;;;5.77;100.00;100954.06;5031870;28;20208;-77
2023/03/01 07:38:26;;;;;;;1.63;1.63;;;;;;;5.74;100.00;100953.03;5031672;28;20204;-78
2023/03/01 07:40:53;;;;;;;2.27;2.07;;;;;;;5.69;100.00;100959.63;5031888;28;20204;-77
2023/03/01 07:43:21;;;;;;;0.90;0.90;;;;;;;5.43;100.00;100928.38;5031671;28;20196;-77
2023/03/01 07:45:48;;;;;;;1.10;1.10;;;;;;;5.62;100.00;100949.84;5031838;28;20224;-78
2023/03/01 07:48:14;;;;;;;1.50;1.50;;;;;;;5.28;100.00;100922.47;5031713;28;20235;-79
2023/03/01 07:50:41;;;;;;;0.90;0.90;;;;;;;5.59;100.00;100944.56;5025363;28;20215;-77
2023/03/01 07:53:09;;;;;;;1.10;1.10;;;;;;;5.50;100.00;100940.72;5006187;28;20606;-78
2023/03/01 07:55:36;;;;;;;0.90;0.90;;;;;;;5.58;100.00;100953.09;5005156;28;20217;-79
2023/03/01 07:58:03;;;;;;;0.70;0.70;;;;;;;5.59;100.00;100945.44;5009305;28;20201;-79
2023/03/01 08:00:30;;;;;;;1.20;1.20;;;;;;;5.50;100.00;100940.72;4993094;28;20204;-78
2023/03/01 08:03:00;;;;;;;0.90;0.90;;;;;;;5.62;100.00;100929.28;5011581;28;20208;-77
2023/03/01 08:05:27;;;;;;;1.23;1.23;;;;;;;5.63;100.00;100942.22;5011032;28;20652;-79
2023/03/01 08:07:53;;;;;;;0.70;0.70;;;;;;;5.71;100.00;100950.28;5010918;28;20241;-79
2023/03/01 08:10:22;;;;;;;0.60;0.60;;;;;;;5.81;100.00;100943.13;5011387;28;20692;-78
2023/03/01 08:12:48;;;;;;;0.67;0.67;;;;;;;5.90;100.00;100938.41;5011232;28;20212;-77
2023/03/01 08:15:15;;;;;;;4.03;3.80;;;;;;;5.78;100.00;100926.66;5011049;28;20692;-78
2023/03/01 08:17:42;;;;;;;1.53;1.43;;;;;;;5.77;100.00;100935.16;5008024;28;20205;-78
2023/03/01 08:20:12;;;;;;;0.73;0.73;;;;;;;5.72;100.00;100921.19;4992624;28;20242;-77
2023/03/01 08:22:39;;;;;;;1.53;1.53;;;;;;;5.70;100.00;100935.69;5011393;28;20248;-77
2023/03/01 08:25:06;;;;;;;1.13;1.13;;;;;;;5.71;100.00;100928.00;5010937;28;20209;-78
2023/03/01 08:27:34;;;;;;;5.53;3.03;;;;;;;5.84;100.00;100945.81;5011227;28;20243;-78
2023/03/01 08:30:01;;;;;;;0.80;0.80;;;;;;;5.69;100.00;100946.78;5010794;28;20200;-77
2023/03/01 08:32:28;;;;;;;0.80;0.80;;;;;;;5.75;100.00;100947.06;5010931;28;20647;-78
2023/03/01 08:34:54;;;;;;;1.67;1.63;;;;;;;5.74;100.00;100946.16;5010917;28;20212;-78
2023/03/01 08:37:21;;;;;;;0.73;0.73;;;;;;;5.74;100.00;100946.16;5010881;28;20240;-78
2023/03/01 08:39:48;;;;;;;0.60;0.60;;;;;;;5.73;100.00;100920.38;5010671;28;20673;-79
2023/03/01 08:42:15;;;;;;;0.70;0.70;;;;;;;5.56;100.00;100924.72;5010891;28;20627;-78
2023/03/01 08:44:43;;;;;;;0.90;0.90;;;;;;;5.67;100.00;100920.94;5010939;28;20208;-77
2023/03/01 08:47:10;;;;;;;0.60;0.60;;;;;;;5.92;100.00;100941.06;5010584;28;20235;-80
2023/03/01 08:49:36;;;;;;;0.80;0.80;;;;;;;6.09;100.00;100929.88;5010897;28;20201;-79
2023/03/01 08:52:03;;;;;;;0.70;0.70;;;;;;;6.07;100.00;100928.91;5005345;28;20213;-78
2023/03/01 08:54:30;;;;;;;0.83;0.83;;;;;;;6.00;100.00;100911.41;4991107;28;20197;-78
2023/03/01 08:56:58;;;;;;;1.10;1.10;;;;;;;5.97;100.00;100907.00;5007977;28;20213;-74
2023/03/01 08:59:26;;;;;;;0.80;0.80;;;;;;;5.97;100.00;100926.72;5010994;28;20216;-78
2023/03/01 09:01:54;;;;;;;1.33;1.33;;;;;;;5.95;100.00;100936.97;5011121;28;20211;-77
2023/03/01 09:04:21;;;;;;;0.90;0.90;;;;;;;6.06;100.00;100916.88;5011050;28;20200;-78
2023/03/01 09:06:48;;;;;;;0.77;0.77;;;;;;;6.10;100.00;100921.31;5010857;28;20201;-78
2023/03/01 09:09:17;;;;;;;0.80;0.80;;;;;;;6.09;100.00;100924.72;4996888;28;20200;-77
2023/03/01 09:11:45;;;;;;;1.27;1.27;;;;;;;6.13;100.00;100929.19;5010808;28;20580;-78
2023/03/01 09:14:12;;;;;;;0.97;0.97;;;;;;;5.57;100.00;100838.13;5010315;28;20201;-76
2023/03/01 09:16:39;;;;;;;3.03;2.83;;;;;;;6.05;100.00;100927.97;5010621;28;20684;-77
2023/03/01 09:19:08;;;;;;;1.00;1.00;;;;;;;6.25;100.00;100927.16;5014242;28;20301;-78
2023/03/01 09:21:34;;;;;;;0.73;0.73;;;;;;;6.14;100.00;100925.78;5014444;28;20590;-78
2023/03/01 09:24:01;;;;;;;1.17;1.17;;;;;;;6.14;100.00;100915.50;5014190;28;20205;-79
2023/03/01 09:26:28;;;;;;;1.57;1.57;;;;;;;6.25;100.00;100932.31;5009181;28;20205;-78
2023/03/01 09:28:56;;;;;;;0.70;0.70;;;;;;;6.23;100.00;100923.66;5007318;28;20233;-78
2023/03/01 09:31:24;;;;;;;1.17;1.17;;;;;;;6.34;100.00;100939.59;5014156;28;20235;-78
2023/03/01 09:33:53;;;;;;;1.17;1.17;;;;;;;6.24;100.00;100933.13;5014289;28;20209;-78
2023/03/01 09:36:23;;;;;;;2.00;1.90;;;;;;;6.43;100.00;100935.72;5000387;28;20588;-78
2023/03/01 09:38:52;;;;;;;1.13;1.13;;;;;;;6.38;100.00;100938.94;5014411;28;20267;-78
2023/03/01 09:41:47;;;;;;;1.23;1.23;;;;;;;6.48;100.00;100936.84;5013816;28;20283;-76
2023/03/01 09:44:28;;;;;;;0.63;0.63;;;;;;;6.57;100.00;100935.47;5013654;28;20224;-76
2023/03/01 09:46:56;;;;;;;0.60;0.60;;;;;;;6.32;100.00;100924.06;5013936;28;20193;-78
2023/03/01 09:49:26;;;;;;;2.33;2.23;;;;;;;6.44;100.00;100940.06;5013416;28;20692;-79
2023/03/01 09:52:01;;;;;;;1.13;1.13;;;;;;;6.45;100.00;100917.78;5013993;28;20563;-78
2023/03/01 09:54:28;;;;;;;0.70;0.70;;;;;;;6.37;100.00;100914.88;5013947;28;20205;-80
2023/03/01 09:57:06;;;;;;;0.70;0.70;;;;;;;6.54;100.00;100946.53;5013647;28;20224;-79
2023/03/01 09:59:46;;;;;;;0.87;0.87;;;;;;;6.69;100.00;100936.00;5013625;28;20296;-79
2023/03/01 10:02:25;;;;;;;0.70;0.70;;;;;;;6.62;100.00;100914.25;5010688;28;20644;-79
2023/03/01 10:04:55;;;;;;;0.90;0.90;;;;;;;6.63;100.00;100940.91;5013595;28;20204;-80
2023/03/01 10:07:33;;;;;;;1.83;1.47;;;;;;;6.48;100.00;100902.47;5011593;28;20719;-80
2023/03/01 10:10:04;;;;;;;0.70;0.70;;;;;;;6.64;100.00;100922.03;5013525;28;20224;-79
2023/03/01 10:12:36;;;;;;;0.70;0.70;;;;;;;6.89;100.00;100935.16;4995009;28;20205;-79
2023/03/01 10:15:11;;;;;;;1.00;1.00;;;;;;;6.95;100.00;100925.16;5013493;28;20717;-79
2023/03/01 10:17:42;;;;;;;0.63;0.63;;;;;;;6.62;100.00;100937.44;4996816;28;20627;-79
2023/03/01 10:20:17;;;;;;;1.70;1.63;;;;;;;6.82;100.00;100940.88;5013393;28;20197;-79
2023/03/01 10:22:50;;;;;;;0.80;0.80;;;;;;;6.79;100.00;100909.81;5013159;28;20201;-80
2023/03/01 10:25:22;;;;;;;1.57;1.57;;;;;;;7.19;100.00;100918.44;5013289;28;20228;-79
2023/03/01 10:27:53;;;;;;;1.17;1.17;;;;;;;6.89;100.00;100920.59;5013206;28;20225;-79
2023/03/01 10:30:22;;;;;;;1.43;1.43;;;;;;;6.87;100.00;100922.25;5012742;28;20280;-79
2023/03/01 10:32:52;;;;;;;1.97;1.87;;;;;;;6.85;100.00;100922.97;5012938;28;20268;-81
2023/03/01 10:35:21;;;;;;;0.80;0.80;;;;;;;6.96;100.00;100921.72;5012960;28;20228;-79
2023/03/01 10:38:04;;;;;;;0.90;0.90;;;;;;;7.16;100.00;100920.00;5013293;28;20241;-80
2023/03/01 10:40:31;;;;;;;0.90;0.90;;;;;;;6.93;100.00;100926.75;5013213;28;20578;-79
2023/03/01 10:43:01;;;;;;;1.00;1.00;;;;;;;6.80;100.00;100914.16;5013195;28;20215;-79
2023/03/01 10:45:35;;;;;;;1.57;1.57;;;;;;;6.88;100.00;100910.22;5013095;28;20216;-78
2023/03/01 10:48:14;;;;;;;0.97;0.97;;;;;;;6.89;100.00;100881.94;5010951;28;20232;-79
2023/03/01 10:50:42;;;;;;;0.93;0.93;;;;;;;6.99;100.00;100906.41;5013073;28;20240;-79
2023/03/01 10:53:24;;;;;;;0.90;0.90;;;;;;;7.04;100.00;100909.16;5013047;28;20205;-80
2023/03/01 10:55:59;;;;;;;1.10;1.10;;;;;;;7.03;100.00;100903.13;5013034;28;20262;-79
2023/03/01 10:58:26;;;;;;;1.00;1.00;;;;;;;6.75;100.00;100879.56;5010863;28;20212;-77
2023/03/01 11:00:55;;;;;;;0.87;0.87;;;;;;;6.94;100.00;100889.88;5012913;28;20660;-77
2023/03/01 11:03:24;;;;;;;18.43;9.20;;;;;;;6.90;100.00;100862.19;5012632;28;20529;-79
2023/03/01 11:06:04;;;;;;;0.80;0.80;;;;;;;7.09;100.00;100876.75;5013071;28;20646;-79
2023/03/01 11:08:36;;;;;;;0.70;0.70;;;;;;;7.35;100.00;100876.97;5012643;28;20224;-79
2023/03/01 11:11:16;;;;;;;0.70;0.70;;;;;;;7.17;100.00;100845.28;5012562;28;20197;-79
2023/03/01 11:13:53;;;;;;;0.93;0.93;;;;;;;7.09;100.00;100885.34;5012604;28;20208;-79
2023/03/01 11:16:26;;;;;;;1.10;1.10;;;;;;;6.93;100.00;100841.69;5012628;28;20212;-79
2023/03/01 11:19:05;;;;;;;0.73;0.73;;;;;;;7.26;100.00;100865.41;5012633;28;20667;-79
2023/03/01 11:21:34;;;;;;;0.70;0.70;;;;;;;7.47;100.00;100867.16;5012508;28;20201;-79
2023/03/01 11:24:04;;;;;;;0.87;0.87;;;;;;;7.34;100.00;100839.13;5012386;28;20200;-80
2023/03/01 11:26:35;;;;;;;0.80;0.80;;;;;;;7.15;100.00;100836.59;5012429;28;20228;-79
2023/03/01 11:29:06;;;;;;;0.80;0.80;;;;;;;7.46;100.00;100859.34;5012228;28;20229;-80
2023/03/01 11:31:34;;;;;;;2.27;2.17;;;;;;;7.43;100.00;100828.25;5012073;28;20205;-79